sensor_id;sensor_type;location;lat;lon;timestamp;pressure;altitude;pressure_sealevel;temperature;humidity
56582;BME280;42463;52.214;21.238;2024-03-23T00:54:10;99538.65;;;10.40;77.94
56582;BME280;42463;52.214;21.238;2024-03-23T00:56:43;99536.17;;;10.41;77.85
56582;BME280;42463;52.214;21.238;2024-03-23T00:59:14;99533.95;;;10.41;78.10
56582;BME280;42463;52.214;21.238;2024-03-23T01:01:47;99528.89;;;10.42;78.08
56582;BME280;42463;52.214;21.238;2024-03-23T01:04:19;99520.77;;;10.42;78.24
56582;BME280;42463;52.214;21.238;2024-03-23T01:06:49;99514.84;;;10.40;78.08
56582;BME280;42463;52.214;21.238;2024-03-23T01:09:20;99510.49;;;10.38;78.35
56582;BME280;42463;52.214;21.238;2024-03-23T01:11:52;99510.50;;;10.36;78.41
56582;BME280;42463;52.214;21.238;2024-03-23T01:14:23;99502.31;;;10.35;78.51
56582;BME280;42463;52.214;21.238;2024-03-23T01:16:55;99499.88;;;10.36;78.54
56582;BME280;42463;52.214;21.238;2024-03-23T01:19:27;99500.48;;;10.35;78.64
56582;BME280;42463;52.214;21.238;2024-03-23T01:22:00;99503.24;;;10.31;78.68
56582;BME280;42463;52.214;21.238;2024-03-23T01:24:31;99499.77;;;10.31;78.91
56582;BME280;42463;52.214;21.238;2024-03-23T01:27:04;99498.32;;;10.31;79.06
56582;BME280;42463;52.214;21.238;2024-03-23T01:29:35;99493.27;;;10.29;78.95
56582;BME280;42463;52.214;21.238;2024-03-23T01:32:07;99491.16;;;10.28;79.03
56582;BME280;42463;52.214;21.238;2024-03-23T01:34:38;99482.44;;;10.29;79.29
56582;BME280;42463;52.214;21.238;2024-03-23T01:37:09;99485.04;;;10.28;79.15
56582;BME280;42463;52.214;21.238;2024-03-23T01:39:41;99482.11;;;10.28;79.34
56582;BME280;42463;52.214;21.238;2024-03-23T01:42:13;99481.63;;;10.29;79.34
56582;BME280;42463;52.214;21.238;2024-03-23T01:44:44;99484.11;;;10.29;79.62
56582;BME280;42463;52.214;21.238;2024-03-23T01:47:16;99484.23;;;10.30;79.55
56582;BME280;42463;52.214;21.238;2024-03-23T01:49:48;99479.02;;;10.30;79.56
56582;BME280;42463;52.214;21.238;2024-03-23T01:52:18;99484.27;;;10.29;79.77
56582;BME280;42463;52.214;21.238;2024-03-23T01:54:49;99488.45;;;10.29;79.75
56582;BME280;42463;52.214;21.238;2024-03-23T01:57:20;99488.50;;;10.30;79.89
56582;BME280;42463;52.214;21.238;2024-03-23T01:59:51;99484.92;;;10.31;79.81
56582;BME280;42463;52.214;21.238;2024-03-23T02:02:22;99478.58;;;10.32;79.83
56582;BME280;42463;52.214;21.238;2024-03-23T02:04:52;99471.95;;;10.32;79.85
56582;BME280;42463;52.214;21.238;2024-03-23T02:07:23;99468.33;;;10.32;79.91
56582;BME280;42463;52.214;21.238;2024-03-23T02:09:55;99468.66;;;10.30;79.74
56582;BME280;42463;52.214;21.238;2024-03-23T02:12:26;99470.83;;;10.29;80.16
56582;BME280;42463;52.214;21.238;2024-03-23T02:14:56;99470.88;;;10.29;80.01
56582;BME280;42463;52.214;21.238;2024-03-23T02:17:27;99465.79;;;10.29;80.16
56582;BME280;42463;52.214;21.238;2024-03-23T02:19:59;99458.68;;;10.30;80.15
56582;BME280;42463;52.214;21.238;2024-03-23T02:22:37;99449.63;;;10.29;80.14
56582;BME280;42463;52.214;21.238;2024-03-23T02:25:09;99455.70;;;10.30;80.28
56582;BME280;42463;52.214;21.238;2024-03-23T02:27:41;99460.59;;;10.30;80.34
56582;BME280;42463;52.214;21.238;2024-03-23T02:30:12;99461.94;;;10.30;80.50
56582;BME280;42463;52.214;21.238;2024-03-23T02:32:42;99457.77;;;10.29;80.59
56582;BME280;42463;52.214;21.238;2024-03-23T02:35:13;99456.79;;;10.29;80.59
56582;BME280;42463;52.214;21.238;2024-03-23T02:37:45;99448.05;;;10.30;80.38
56582;BME280;42463;52.214;21.238;2024-03-23T02:40:17;99450.55;;;10.29;80.71
56582;BME280;42463;52.214;21.238;2024-03-23T02:42:49;99442.91;;;10.30;80.68
56582;BME280;42463;52.214;21.238;2024-03-23T02:45:20;99440.25;;;10.31;80.64
56582;BME280;42463;52.214;21.238;2024-03-23T02:47:52;99442.02;;;10.32;80.75
56582;BME280;42463;52.214;21.238;2024-03-23T02:50:24;99437.10;;;10.32;80.63
56582;BME280;42463;52.214;21.238;2024-03-23T02:52:54;99437.75;;;10.32;80.81
56582;BME280;42463;52.214;21.238;2024-03-23T02:55:26;99432.92;;;10.30;80.87
56582;BME280;42463;52.214;21.238;2024-03-23T02:57:57;99431.30;;;10.29;81.13
56582;BME280;42463;52.214;21.238;2024-03-23T03:00:31;99425.18;;;10.29;81.05
56582;BME280;42463;52.214;21.238;2024-03-23T03:03:02;99426.54;;;10.29;80.92
56582;BME280;42463;52.214;21.238;2024-03-23T03:05:34;99424.15;;;10.28;81.12
56582;BME280;42463;52.214;21.238;2024-03-23T03:08:06;99423.94;;;10.28;81.22
56582;BME280;42463;52.214;21.238;2024-03-23T03:10:39;99417.81;;;10.28;81.16
56582;BME280;42463;52.214;21.238;2024-03-23T03:13:11;99414.34;;;10.28;81.10
56582;BME280;42463;52.214;21.238;2024-03-23T03:15:44;99412.11;;;10.29;81.42
56582;BME280;42463;52.214;21.238;2024-03-23T03:18:15;99408.70;;;10.29;81.61
56582;BME280;42463;52.214;21.238;2024-03-23T03:20:46;99406.21;;;10.29;81.63
56582;BME280;42463;52.214;21.238;2024-03-23T03:23:17;99404.69;;;10.30;81.56
56582;BME280;42463;52.214;21.238;2024-03-23T03:25:48;99398.98;;;10.30;81.71
56582;BME280;42463;52.214;21.238;2024-03-23T03:28:19;99399.48;;;10.30;81.83
56582;BME280;42463;52.214;21.238;2024-03-23T03:30:50;99401.37;;;10.32;81.70
56582;BME280;42463;52.214;21.238;2024-03-23T03:33:21;99400.61;;;10.31;81.84
56582;BME280;42463;52.214;21.238;2024-03-23T03:35:52;99401.31;;;10.31;81.89
56582;BME280;42463;52.214;21.238;2024-03-23T03:38:43;99405.23;;;10.30;81.99
56582;BME280;42463;52.214;21.238;2024-03-23T03:41:14;99409.19;;;10.29;81.94
56582;BME280;42463;52.214;21.238;2024-03-23T03:43:45;99411.36;;;10.29;82.05
56582;BME280;42463;52.214;21.238;2024-03-23T03:46:18;99415.09;;;10.29;82.26
56582;BME280;42463;52.214;21.238;2024-03-23T03:48:49;99416.02;;;10.30;82.30
56582;BME280;42463;52.214;21.238;2024-03-23T03:51:21;99419.05;;;10.31;82.23
56582;BME280;42463;52.214;21.238;2024-03-23T03:53:51;99412.87;;;10.31;82.34
56582;BME280;42463;52.214;21.238;2024-03-23T03:56:22;99414.55;;;10.32;82.51
56582;BME280;42463;52.214;21.238;2024-03-23T03:58:53;99414.75;;;10.33;82.41
56582;BME280;42463;52.214;21.238;2024-03-23T04:01:24;99412.86;;;10.34;82.59
56582;BME280;42463;52.214;21.238;2024-03-23T04:03:55;99408.63;;;10.35;82.45
56582;BME280;42463;52.214;21.238;2024-03-23T04:06:26;99409.27;;;10.35;82.44
56582;BME280;42463;52.214;21.238;2024-03-23T04:08:58;99402.23;;;10.35;82.44
56582;BME280;42463;52.214;21.238;2024-03-23T04:11:28;99402.16;;;10.36;82.58
56582;BME280;42463;52.214;21.238;2024-03-23T04:13:59;99403.41;;;10.38;82.44
56582;BME280;42463;52.214;21.238;2024-03-23T04:16:35;99404.33;;;10.38;82.78
56582;BME280;42463;52.214;21.238;2024-03-23T04:19:06;99400.37;;;10.39;82.74
56582;BME280;42463;52.214;21.238;2024-03-23T04:21:36;99395.48;;;10.39;82.67
56582;BME280;42463;52.214;21.238;2024-03-23T04:24:08;99387.80;;;10.38;82.51
56582;BME280;42463;52.214;21.238;2024-03-23T04:26:43;99383.77;;;10.38;82.81
56582;BME280;42463;52.214;21.238;2024-03-23T04:29:15;99388.21;;;10.40;82.89
56582;BME280;42463;52.214;21.238;2024-03-23T04:31:46;99387.65;;;10.41;82.86
56582;BME280;42463;52.214;21.238;2024-03-23T04:34:17;99382.11;;;10.41;82.90
56582;BME280;42463;52.214;21.238;2024-03-23T04:36:47;99378.80;;;10.41;82.85
56582;BME280;42463;52.214;21.238;2024-03-23T04:39:18;99374.29;;;10.39;82.92
56582;BME280;42463;52.214;21.238;2024-03-23T04:41:50;99370.60;;;10.38;83.08
56582;BME280;42463;52.214;21.238;2024-03-23T04:44:21;99364.85;;;10.37;82.93
56582;BME280;42463;52.214;21.238;2024-03-23T04:46:52;99368.70;;;10.38;83.19
56582;BME280;42463;52.214;21.238;2024-03-23T04:49:22;99368.75;;;10.39;83.46
56582;BME280;42463;52.214;21.238;2024-03-23T04:51:54;99363.62;;;10.41;83.33
56582;BME280;42463;52.214;21.238;2024-03-23T04:54:25;99368.55;;;10.41;83.39
56582;BME280;42463;52.214;21.238;2024-03-23T04:56:57;99361.39;;;10.43;83.36
56582;BME280;42463;52.214;21.238;2024-03-23T04:59:29;99357.80;;;10.45;83.40
56582;BME280;42463;52.214;21.238;2024-03-23T05:01:59;99360.17;;;10.46;83.18
56582;BME280;42463;52.214;21.238;2024-03-23T05:04:30;99366.09;;;10.46;83.34
56582;BME280;42463;52.214;21.238;2024-03-23T05:07:01;99357.84;;;10.47;83.31
56582;BME280;42463;52.214;21.238;2024-03-23T05:09:32;99353.24;;;10.45;83.25
56582;BME280;42463;52.214;21.238;2024-03-23T05:12:02;99353.26;;;10.43;83.36
56582;BME280;42463;52.214;21.238;2024-03-23T05:14:33;99347.73;;;10.42;83.46
56582;BME280;42463;52.214;21.238;2024-03-23T05:17:04;99333.30;;;10.41;83.41
56582;BME280;42463;52.214;21.238;2024-03-23T05:19:35;99331.13;;;10.39;83.57
56582;BME280;42463;52.214;21.238;2024-03-23T05:22:05;99340.79;;;10.40;83.52
56582;BME280;42463;52.214;21.238;2024-03-23T05:24:36;99352.76;;;10.40;83.85
56582;BME280;42463;52.214;21.238;2024-03-23T05:27:07;99352.72;;;10.41;83.80
56582;BME280;42463;52.214;21.238;2024-03-23T05:29:37;99350.43;;;10.43;83.87
56582;BME280;42463;52.214;21.238;2024-03-23T05:32:10;99354.05;;;10.45;83.86
56582;BME280;42463;52.214;21.238;2024-03-23T05:34:40;99354.00;;;10.47;83.88
56582;BME280;42463;52.214;21.238;2024-03-23T05:37:11;99347.04;;;10.49;83.79
56582;BME280;42463;52.214;21.238;2024-03-23T05:39:42;99341.83;;;10.48;83.70
56582;BME280;42463;52.214;21.238;2024-03-23T05:42:14;99333.36;;;10.50;83.63
56582;BME280;42463;52.214;21.238;2024-03-23T05:44:45;99333.30;;;10.51;83.62
56582;BME280;42463;52.214;21.238;2024-03-23T05:47:17;99333.73;;;10.52;83.70
56582;BME280;42463;52.214;21.238;2024-03-23T05:49:48;99336.98;;;10.53;83.63
56582;BME280;42463;52.214;21.238;2024-03-23T05:52:21;99339.80;;;10.53;83.53
56582;BME280;42463;52.214;21.238;2024-03-23T05:54:55;99341.27;;;10.53;83.61
56582;BME280;42463;52.214;21.238;2024-03-23T05:57:28;99338.66;;;10.53;83.77
56582;BME280;42463;52.214;21.238;2024-03-23T06:00:00;99333.40;;;10.54;83.53
56582;BME280;42463;52.214;21.238;2024-03-23T06:02:31;99333.36;;;10.53;83.51
56582;BME280;42463;52.214;21.238;2024-03-23T06:05:03;99336.48;;;10.53;83.54
56582;BME280;42463;52.214;21.238;2024-03-23T06:07:35;99339.09;;;10.53;83.42
56582;BME280;42463;52.214;21.238;2024-03-23T06:10:08;99332.55;;;10.53;83.44
56582;BME280;42463;52.214;21.238;2024-03-23T06:12:39;99331.71;;;10.54;83.74
56582;BME280;42463;52.214;21.238;2024-03-23T06:15:12;99324.27;;;10.55;83.55
56582;BME280;42463;52.214;21.238;2024-03-23T06:17:43;99314.89;;;10.56;83.45
56582;BME280;42463;52.214;21.238;2024-03-23T06:20:14;99310.55;;;10.56;83.37
56582;BME280;42463;52.214;21.238;2024-03-23T06:22:44;99312.71;;;10.58;83.63
56582;BME280;42463;52.214;21.238;2024-03-23T06:25:15;99318.98;;;10.61;83.65
56582;BME280;42463;52.214;21.238;2024-03-23T06:27:47;99322.66;;;10.62;83.83
56582;BME280;42463;52.214;21.238;2024-03-23T06:30:19;99331.70;;;10.64;83.54
56582;BME280;42463;52.214;21.238;2024-03-23T06:32:50;99330.07;;;10.65;83.44
56582;BME280;42463;52.214;21.238;2024-03-23T06:35:21;99319.97;;;10.68;83.57
56582;BME280;42463;52.214;21.238;2024-03-23T06:37:52;99320.38;;;10.71;83.52
56582;BME280;42463;52.214;21.238;2024-03-23T06:40:23;99315.33;;;10.71;83.43
56582;BME280;42463;52.214;21.238;2024-03-23T06:42:53;99311.75;;;10.71;83.45
56582;BME280;42463;52.214;21.238;2024-03-23T06:45:24;99314.52;;;10.71;83.26
56582;BME280;42463;52.214;21.238;2024-03-23T06:47:56;99309.31;;;10.71;83.42
56582;BME280;42463;52.214;21.238;2024-03-23T06:50:27;99302.27;;;10.70;83.02
56582;BME280;42463;52.214;21.238;2024-03-23T06:52:58;99304.55;;;10.69;83.40
56582;BME280;42463;52.214;21.238;2024-03-23T06:55:31;99308.88;;;10.70;83.58
56582;BME280;42463;52.214;21.238;2024-03-23T06:58:04;99305.84;;;10.71;83.52
56582;BME280;42463;52.214;21.238;2024-03-23T07:00:35;99303.56;;;10.71;83.27
56582;BME280;42463;52.214;21.238;2024-03-23T07:03:07;99297.98;;;10.71;83.62
56582;BME280;42463;52.214;21.238;2024-03-23T07:05:37;99287.94;;;10.70;83.36
56582;BME280;42463;52.214;21.238;2024-03-23T07:08:10;99282.34;;;10.71;83.52
56582;BME280;42463;52.214;21.238;2024-03-23T07:10:42;99278.27;;;10.72;83.57
56582;BME280;42463;52.214;21.238;2024-03-23T07:13:14;99281.34;;;10.74;83.64
56582;BME280;42463;52.214;21.238;2024-03-23T07:15:44;99281.98;;;10.76;83.67
56582;BME280;42463;52.214;21.238;2024-03-23T07:18:21;99287.95;;;10.77;83.59
56582;BME280;42463;52.214;21.238;2024-03-23T07:20:55;99284.97;;;10.75;83.19
56582;BME280;42463;52.214;21.238;2024-03-23T07:23:26;99281.38;;;10.71;83.30
56582;BME280;42463;52.214;21.238;2024-03-23T07:26:00;99282.68;;;10.69;83.65
56582;BME280;42463;52.214;21.238;2024-03-23T07:28:32;99278.67;;;10.68;83.61
56582;BME280;42463;52.214;21.238;2024-03-23T07:31:05;99278.19;;;10.69;83.88
56582;BME280;42463;52.214;21.238;2024-03-23T07:33:41;99276.55;;;10.71;84.08
56582;BME280;42463;52.214;21.238;2024-03-23T07:36:12;99277.02;;;10.73;84.18
56582;BME280;42463;52.214;21.238;2024-03-23T07:38:44;99283.58;;;10.74;84.06
56582;BME280;42463;52.214;21.238;2024-03-23T07:41:17;99274.86;;;10.71;83.93
56582;BME280;42463;52.214;21.238;2024-03-23T07:43:49;99273.45;;;10.71;83.93
56582;BME280;42463;52.214;21.238;2024-03-23T07:46:22;99275.55;;;10.73;84.23
56582;BME280;42463;52.214;21.238;2024-03-23T07:48:55;99274.24;;;10.74;84.16
56582;BME280;42463;52.214;21.238;2024-03-23T07:51:26;99274.13;;;10.74;84.17
56582;BME280;42463;52.214;21.238;2024-03-23T07:53:56;99266.20;;;10.75;84.16
56582;BME280;42463;52.214;21.238;2024-03-23T07:56:27;99261.23;;;10.74;84.05
56582;BME280;42463;52.214;21.238;2024-03-23T07:58:58;99255.65;;;10.72;84.17
56582;BME280;42463;52.214;21.238;2024-03-23T08:01:29;99254.16;;;10.68;83.88
56582;BME280;42463;52.214;21.238;2024-03-23T08:04:01;99244.80;;;10.66;84.35
56582;BME280;42463;52.214;21.238;2024-03-23T08:06:31;99240.15;;;10.63;84.37
56582;BME280;42463;52.214;21.238;2024-03-23T08:09:03;99234.31;;;10.61;84.33
56582;BME280;42463;52.214;21.238;2024-03-23T08:11:34;99234.31;;;10.61;84.78
56582;BME280;42463;52.214;21.238;2024-03-23T08:14:04;99232.22;;;10.64;84.90
56582;BME280;42463;52.214;21.238;2024-03-23T08:16:35;99228.55;;;10.68;84.90
56582;BME280;42463;52.214;21.238;2024-03-23T08:19:06;99229.29;;;10.71;84.83
56582;BME280;42463;52.214;21.238;2024-03-23T08:21:38;99220.00;;;10.73;84.81
56582;BME280;42463;52.214;21.238;2024-03-23T08:24:10;99210.93;;;10.74;84.55
56582;BME280;42463;52.214;21.238;2024-03-23T08:26:40;99196.17;;;10.74;84.67
56582;BME280;42463;52.214;21.238;2024-03-23T08:29:11;99195.66;;;10.76;84.93
56582;BME280;42463;52.214;21.238;2024-03-23T08:31:42;99200.93;;;10.81;85.19
56582;BME280;42463;52.214;21.238;2024-03-23T08:34:13;99206.20;;;10.86;85.27
56582;BME280;42463;52.214;21.238;2024-03-23T08:36:43;99203.80;;;10.89;85.01
56582;BME280;42463;52.214;21.238;2024-03-23T08:39:15;99197.21;;;10.91;85.27
56582;BME280;42463;52.214;21.238;2024-03-23T08:41:47;99191.58;;;10.95;85.22
56582;BME280;42463;52.214;21.238;2024-03-23T08:44:18;99192.48;;;10.98;85.08
56582;BME280;42463;52.214;21.238;2024-03-23T08:46:49;99186.55;;;10.99;85.05
56582;BME280;42463;52.214;21.238;2024-03-23T08:49:19;99184.19;;;11.02;84.94
56582;BME280;42463;52.214;21.238;2024-03-23T08:51:51;99182.27;;;11.03;84.81
56582;BME280;42463;52.214;21.238;2024-03-23T08:54:22;99182.73;;;11.05;84.56
56582;BME280;42463;52.214;21.238;2024-03-23T08:56:52;99169.77;;;11.04;84.10
56582;BME280;42463;52.214;21.238;2024-03-23T08:59:23;99165.86;;;11.05;84.52
56582;BME280;42463;52.214;21.238;2024-03-23T09:01:53;99166.05;;;11.07;84.69
56582;BME280;42463;52.214;21.238;2024-03-23T09:04:23;99160.27;;;11.10;84.52
56582;BME280;42463;52.214;21.238;2024-03-23T09:06:54;99156.30;;;11.11;84.48
56582;BME280;42463;52.214;21.238;2024-03-23T09:09:24;99148.45;;;11.13;84.40
56582;BME280;42463;52.214;21.238;2024-03-23T09:11:55;99140.41;;;11.19;84.75
56582;BME280;42463;52.214;21.238;2024-03-23T09:14:26;99133.15;;;11.27;84.88
56582;BME280;42463;52.214;21.238;2024-03-23T09:16:56;99128.77;;;11.33;84.28
56582;BME280;42463;52.214;21.238;2024-03-23T09:19:29;99123.20;;;11.37;84.15
56582;BME280;42463;52.214;21.238;2024-03-23T09:22:00;99125.02;;;11.42;84.34
56582;BME280;42463;52.214;21.238;2024-03-23T09:24:31;99123.91;;;11.50;84.85
56582;BME280;42463;52.214;21.238;2024-03-23T09:27:02;99120.44;;;11.58;84.50
56582;BME280;42463;52.214;21.238;2024-03-23T09:29:33;99118.31;;;11.66;84.42
56582;BME280;42463;52.214;21.238;2024-03-23T09:32:08;99108.59;;;11.74;84.74
56582;BME280;42463;52.214;21.238;2024-03-23T09:34:39;99109.48;;;11.83;84.29
56582;BME280;42463;52.214;21.238;2024-03-23T09:37:10;99099.70;;;11.90;83.96
56582;BME280;42463;52.214;21.238;2024-03-23T09:39:41;99094.07;;;11.98;83.68
56582;BME280;42463;52.214;21.238;2024-03-23T09:42:12;99095.52;;;12.06;83.87
56582;BME280;42463;52.214;21.238;2024-03-23T09:44:44;99084.23;;;12.18;83.77
56582;BME280;42463;52.214;21.238;2024-03-23T09:47:16;99078.59;;;12.27;83.13
56582;BME280;42463;52.214;21.238;2024-03-23T09:49:47;99069.58;;;12.36;82.45
56582;BME280;42463;52.214;21.238;2024-03-23T09:52:18;99072.95;;;12.45;82.79
56582;BME280;42463;52.214;21.238;2024-03-23T09:54:48;99076.02;;;12.55;82.87
56582;BME280;42463;52.214;21.238;2024-03-23T09:57:20;99070.45;;;12.62;82.19
56582;BME280;42463;52.214;21.238;2024-03-23T09:59:51;99069.13;;;12.64;81.55
56582;BME280;42463;52.214;21.238;2024-03-23T10:02:23;99063.77;;;12.67;81.22
56582;BME280;42463;52.214;21.238;2024-03-23T10:04:54;99064.05;;;12.72;81.32
56582;BME280;42463;52.214;21.238;2024-03-23T10:07:26;99060.33;;;12.79;81.51
56582;BME280;42463;52.214;21.238;2024-03-23T10:09:58;99054.38;;;12.85;81.08
56582;BME280;42463;52.214;21.238;2024-03-23T10:12:29;99048.06;;;12.96;80.58
56582;BME280;42463;52.214;21.238;2024-03-23T10:15:00;99039.63;;;13.06;79.78
56582;BME280;42463;52.214;21.238;2024-03-23T10:17:30;99035.27;;;13.17;79.26
56582;BME280;42463;52.214;21.238;2024-03-23T10:20:02;99027.30;;;13.31;79.51
56582;BME280;42463;52.214;21.238;2024-03-23T10:22:37;99017.09;;;13.47;78.36
56582;BME280;42463;52.214;21.238;2024-03-23T10:25:11;98995.23;;;13.60;77.71
56582;BME280;42463;52.214;21.238;2024-03-23T10:27:43;98984.74;;;13.79;77.23
56582;BME280;42463;52.214;21.238;2024-03-23T10:30:17;98977.75;;;13.94;76.26
56582;BME280;42463;52.214;21.238;2024-03-23T10:32:49;98968.58;;;14.05;75.18
56582;BME280;42463;52.214;21.238;2024-03-23T10:35:21;98959.63;;;14.20;74.93
56582;BME280;42463;52.214;21.238;2024-03-23T10:37:52;98950.45;;;14.39;75.00
56582;BME280;42463;52.214;21.238;2024-03-23T10:40:27;98943.57;;;14.56;73.73
56582;BME280;42463;52.214;21.238;2024-03-23T10:43:00;98935.81;;;14.74;72.23
56582;BME280;42463;52.214;21.238;2024-03-23T10:45:32;98932.31;;;14.89;71.92
56582;BME280;42463;52.214;21.238;2024-03-23T10:48:04;98926.98;;;15.04;69.87
56582;BME280;42463;52.214;21.238;2024-03-23T10:50:36;98918.13;;;15.16;70.04
56582;BME280;42463;52.214;21.238;2024-03-23T10:53:09;98913.45;;;15.32;69.97
56582;BME280;42463;52.214;21.238;2024-03-23T10:55:42;98910.49;;;15.48;69.97
56582;BME280;42463;52.214;21.238;2024-03-23T10:58:14;98902.46;;;15.68;69.29
56582;BME280;42463;52.214;21.238;2024-03-23T11:00:46;98903.59;;;15.82;66.75
56582;BME280;42463;52.214;21.238;2024-03-23T11:03:32;98907.36;;;15.91;65.44
56582;BME280;42463;52.214;21.238;2024-03-23T11:06:04;98899.39;;;16.01;64.51
56582;BME280;42463;52.214;21.238;2024-03-23T11:08:39;98889.86;;;16.14;65.44
56582;BME280;42463;52.214;21.238;2024-03-23T11:11:15;98884.53;;;16.27;62.95
56582;BME280;42463;52.214;21.238;2024-03-23T11:13:48;98870.77;;;16.35;62.75
56582;BME280;42463;52.214;21.238;2024-03-23T11:16:24;98865.11;;;16.44;61.99
56582;BME280;42463;52.214;21.238;2024-03-23T11:19:33;98860.66;;;16.56;62.42
56582;BME280;42463;52.214;21.238;2024-03-23T11:22:00;98857.42;;;16.72;62.72
56582;BME280;42463;52.214;21.238;2024-03-23T11:24:32;98854.61;;;16.93;62.42
56582;BME280;42463;52.214;21.238;2024-03-23T11:27:03;98851.97;;;17.12;61.27
56582;BME280;42463;52.214;21.238;2024-03-23T11:29:46;98852.51;;;17.30;60.75
56582;BME280;42463;52.214;21.238;2024-03-23T11:32:17;98846.45;;;17.46;59.35
56582;BME280;42463;52.214;21.238;2024-03-23T11:34:48;98840.17;;;17.51;57.81
56582;BME280;42463;52.214;21.238;2024-03-23T11:37:19;98833.20;;;17.51;58.55
56582;BME280;42463;52.214;21.238;2024-03-23T11:39:50;98831.19;;;17.62;58.96
56582;BME280;42463;52.214;21.238;2024-03-23T11:42:21;98833.71;;;17.75;57.35
56582;BME280;42463;52.214;21.238;2024-03-23T11:44:53;98824.64;;;17.80;56.88
56582;BME280;42463;52.214;21.238;2024-03-23T11:47:25;98820.97;;;17.88;56.75
56582;BME280;42463;52.214;21.238;2024-03-23T11:49:56;98820.63;;;17.94;56.54
56582;BME280;42463;52.214;21.238;2024-03-23T11:52:27;98819.35;;;17.96;55.62
56582;BME280;42463;52.214;21.238;2024-03-23T11:55:05;98815.63;;;17.90;54.88
56582;BME280;42463;52.214;21.238;2024-03-23T11:57:38;98808.71;;;17.85;55.49
56582;BME280;42463;52.214;21.238;2024-03-23T12:00:22;98804.80;;;17.87;55.40
56582;BME280;42463;52.214;21.238;2024-03-23T12:02:54;98795.42;;;17.93;55.39
56582;BME280;42463;52.214;21.238;2024-03-23T12:05:32;98782.34;;;17.98;54.82
56582;BME280;42463;52.214;21.238;2024-03-23T12:08:32;98778.17;;;17.98;54.87
56582;BME280;42463;52.214;21.238;2024-03-23T12:11:09;98775.55;;;18.01;54.71
56582;BME280;42463;52.214;21.238;2024-03-23T12:13:41;98771.46;;;18.01;54.80
56582;BME280;42463;52.214;21.238;2024-03-23T12:16:14;98766.61;;;18.01;54.27
56582;BME280;42463;52.214;21.238;2024-03-23T12:18:46;98765.20;;;17.96;53.52
56582;BME280;42463;52.214;21.238;2024-03-23T12:21:29;98759.58;;;17.90;52.58
56582;BME280;42463;52.214;21.238;2024-03-23T12:23:59;98748.98;;;17.84;53.20
56582;BME280;42463;52.214;21.238;2024-03-23T12:26:31;98748.00;;;17.83;53.73
56582;BME280;42463;52.214;21.238;2024-03-23T12:29:01;98742.40;;;17.84;53.14
56582;BME280;42463;52.214;21.238;2024-03-23T12:31:33;98741.30;;;17.82;52.96
56582;BME280;42463;52.214;21.238;2024-03-23T12:34:04;98731.80;;;17.83;52.50
56582;BME280;42463;52.214;21.238;2024-03-23T12:47:04;98710.30;;;17.83;49.41
56582;BME280;42463;52.214;21.238;2024-03-23T12:49:34;98703.73;;;17.76;49.96
56582;BME280;42463;52.214;21.238;2024-03-23T12:52:12;98699.26;;;17.69;50.16
56582;BME280;42463;52.214;21.238;2024-03-23T12:54:43;98697.85;;;17.65;50.47
56582;BME280;42463;52.214;21.238;2024-03-23T12:57:14;98692.23;;;17.62;50.96
56582;BME280;42463;52.214;21.238;2024-03-23T12:59:44;98687.11;;;17.58;50.90
56582;BME280;42463;52.214;21.238;2024-03-23T13:02:21;98688.99;;;17.55;51.27
56582;BME280;42463;52.214;21.238;2024-03-23T13:04:52;98682.52;;;17.54;51.34
56582;BME280;42463;52.214;21.238;2024-03-23T13:07:23;98675.27;;;17.52;51.01
56582;BME280;42463;52.214;21.238;2024-03-23T13:09:53;98673.89;;;17.49;50.92
56582;BME280;42463;52.214;21.238;2024-03-23T13:12:26;98669.33;;;17.46;51.04
56582;BME280;42463;52.214;21.238;2024-03-23T13:14:59;98662.29;;;17.41;51.13
56582;BME280;42463;52.214;21.238;2024-03-23T13:17:29;98658.72;;;17.37;51.08
56582;BME280;42463;52.214;21.238;2024-03-23T13:20:01;98656.91;;;17.35;50.99
56582;BME280;42463;52.214;21.238;2024-03-23T13:22:33;98652.91;;;17.33;50.84
56582;BME280;42463;52.214;21.238;2024-03-23T13:25:05;98644.63;;;17.31;50.88
56582;BME280;42463;52.214;21.238;2024-03-23T13:27:37;98638.84;;;17.29;50.66
56582;BME280;42463;52.214;21.238;2024-03-23T13:30:10;98625.88;;;17.27;50.75
56582;BME280;42463;52.214;21.238;2024-03-23T13:32:40;98625.25;;;17.24;51.09
56582;BME280;42463;52.214;21.238;2024-03-23T13:35:11;98620.61;;;17.24;51.16
56582;BME280;42463;52.214;21.238;2024-03-23T13:37:41;98612.13;;;17.23;51.24
56582;BME280;42463;52.214;21.238;2024-03-23T13:40:15;98609.23;;;17.20;51.40
56582;BME280;42463;52.214;21.238;2024-03-23T13:42:47;98598.92;;;17.19;51.59
56582;BME280;42463;52.214;21.238;2024-03-23T13:45:18;98594.95;;;17.17;51.90
56582;BME280;42463;52.214;21.238;2024-03-23T13:47:49;98590.23;;;17.14;52.45
56582;BME280;42463;52.214;21.238;2024-03-23T13:50:19;98583.69;;;17.13;52.39
56582;BME280;42463;52.214;21.238;2024-03-23T13:52:51;98579.40;;;17.11;52.06
56582;BME280;42463;52.214;21.238;2024-03-23T13:55:23;98577.16;;;17.09;51.52
56582;BME280;42463;52.214;21.238;2024-03-23T13:57:53;98572.59;;;17.09;51.47
56582;BME280;42463;52.214;21.238;2024-03-23T14:00:24;98572.67;;;17.07;51.48
56582;BME280;42463;52.214;21.238;2024-03-23T14:02:54;98563.94;;;17.05;51.70
56582;BME280;42463;52.214;21.238;2024-03-23T14:05:25;98563.64;;;17.03;51.12
56582;BME280;42463;52.214;21.238;2024-03-23T14:07:56;98560.44;;;17.01;51.06
56582;BME280;42463;52.214;21.238;2024-03-23T14:10:27;98557.80;;;16.97;50.68
56582;BME280;42463;52.214;21.238;2024-03-23T14:12:57;98554.02;;;16.91;50.39
56582;BME280;42463;52.214;21.238;2024-03-23T14:15:31;98551.10;;;16.88;50.65
56582;BME280;42463;52.214;21.238;2024-03-23T14:18:02;98551.19;;;16.86;51.17